sensor_id;sensor_type;location;lat;lon;timestamp;P1;durP1;ratioP1;P2;durP2;ratioP2
48791;SDS011;34587;48.816;9.420;2023-02-24T00:00:20;3.03;;;1.88;;
48791;SDS011;34587;48.816;9.420;2023-02-24T00:02:59;3.55;;;3.15;;
48791;SDS011;34587;48.816;9.420;2023-02-24T00:05:32;2.95;;;2.25;;
48791;SDS011;34587;48.816;9.420;2023-02-24T00:07:58;2.80;;;2.58;;
48791;SDS011;34587;48.816;9.420;2023-02-24T00:10:23;3.72;;;2.90;;
48791;SDS011;34587;48.816;9.420;2023-02-24T00:12:49;2.95;;;2.75;;
48791;SDS011;34587;48.816;9.420;2023-02-24T00:15:14;5.85;;;2.95;;
48791;SDS011;34587;48.816;9.420;2023-02-24T00:17:40;7.03;;;4.40;;
48791;SDS011;34587;48.816;9.420;2023-02-24T00:20:09;2.28;;;2.05;;
48791;SDS011;34587;48.816;9.420;2023-02-24T00:22:36;7.57;;;2.95;;
48791;SDS011;34587;48.816;9.420;2023-02-24T00:25:05;7.93;;;2.47;;
48791;SDS011;34587;48.816;9.420;2023-02-24T00:27:31;2.67;;;2.47;;
48791;SDS011;34587;48.816;9.420;2023-02-24T00:29:57;2.45;;;2.10;;
48791;SDS011;34587;48.816;9.420;2023-02-24T00:32:22;3.47;;;2.53;;
48791;SDS011;34587;48.816;9.420;2023-02-24T00:34:48;3.03;;;2.33;;
48791;SDS011;34587;48.816;9.420;2023-02-24T00:37:13;3.60;;;2.67;;
48791;SDS011;34587;48.816;9.420;2023-02-24T00:39:47;4.93;;;3.35;;
48791;SDS011;34587;48.816;9.420;2023-02-24T00:42:16;4.35;;;3.95;;
48791;SDS011;34587;48.816;9.420;2023-02-24T00:44:45;3.60;;;1.80;;
48791;SDS011;34587;48.816;9.420;2023-02-24T00:47:11;4.68;;;3.30;;
48791;SDS011;34587;48.816;9.420;2023-02-24T00:49:38;4.07;;;3.47;;
48791;SDS011;34587;48.816;9.420;2023-02-24T00:52:08;3.05;;;2.85;;
48791;SDS011;34587;48.816;9.420;2023-02-24T00:54:37;2.00;;;1.90;;
48791;SDS011;34587;48.816;9.420;2023-02-24T00:57:03;3.53;;;2.83;;
48791;SDS011;34587;48.816;9.420;2023-02-24T00:59:28;4.03;;;3.00;;
48791;SDS011;34587;48.816;9.420;2023-02-24T05:17:11;5.28;;;3.88;;
48791;SDS011;34587;48.816;9.420;2023-02-24T05:19:38;4.38;;;3.70;;
48791;SDS011;34587;48.816;9.420;2023-02-24T05:22:21;4.20;;;3.72;;
48791;SDS011;34587;48.816;9.420;2023-02-24T05:24:47;7.28;;;3.42;;
48791;SDS011;34587;48.816;9.420;2023-02-24T05:27:14;8.15;;;5.40;;
48791;SDS011;34587;48.816;9.420;2023-02-24T05:29:41;13.23;;;6.28;;
48791;SDS011;34587;48.816;9.420;2023-02-24T05:32:08;10.52;;;5.50;;
48791;SDS011;34587;48.816;9.420;2023-02-24T05:34:33;8.02;;;5.20;;
48791;SDS011;34587;48.816;9.420;2023-02-24T05:36:59;6.47;;;5.55;;
48791;SDS011;34587;48.816;9.420;2023-02-24T05:39:28;7.68;;;3.83;;
48791;SDS011;34587;48.816;9.420;2023-02-24T05:41:54;9.23;;;4.68;;
48791;SDS011;34587;48.816;9.420;2023-02-24T05:44:21;7.45;;;4.88;;
48791;SDS011;34587;48.816;9.420;2023-02-24T05:46:51;5.53;;;4.60;;
48791;SDS011;34587;48.816;9.420;2023-02-24T05:49:22;2.60;;;2.40;;
48791;SDS011;34587;48.816;9.420;2023-02-24T05:54:19;8.10;;;4.72;;
48791;SDS011;34587;48.816;9.420;2023-02-24T05:56:46;4.75;;;4.25;;
48791;SDS011;34587;48.816;9.420;2023-02-24T05:59:12;5.15;;;4.47;;
48791;SDS011;34587;48.816;9.420;2023-02-24T06:04:10;4.22;;;3.83;;
48791;SDS011;34587;48.816;9.420;2023-02-24T06:06:44;8.15;;;5.32;;
48791;SDS011;34587;48.816;9.420;2023-02-24T06:09:12;8.23;;;4.30;;
48791;SDS011;34587;48.816;9.420;2023-02-24T06:11:38;16.55;;;4.82;;
48791;SDS011;34587;48.816;9.420;2023-02-24T06:14:05;10.32;;;3.53;;
48791;SDS011;34587;48.816;9.420;2023-02-24T06:16:31;14.32;;;4.60;;
48791;SDS011;34587;48.816;9.420;2023-02-24T06:18:58;5.38;;;3.40;;
48791;SDS011;34587;48.816;9.420;2023-02-24T06:21:23;8.23;;;4.82;;
48791;SDS011;34587;48.816;9.420;2023-02-24T06:26:18;4.63;;;4.03;;
48791;SDS011;34587;48.816;9.420;2023-02-24T06:28:46;9.20;;;4.75;;
48791;SDS011;34587;48.816;9.420;2023-02-24T06:31:12;7.85;;;6.07;;
48791;SDS011;34587;48.816;9.420;2023-02-24T06:33:39;5.82;;;4.03;;
48791;SDS011;34587;48.816;9.420;2023-02-24T06:36:06;8.63;;;3.50;;
48791;SDS011;34587;48.816;9.420;2023-02-24T06:38:33;9.57;;;4.72;;
48791;SDS011;34587;48.816;9.420;2023-02-24T06:40:59;3.15;;;2.88;;
48791;SDS011;34587;48.816;9.420;2023-02-24T06:43:28;10.55;;;5.03;;
48791;SDS011;34587;48.816;9.420;2023-02-24T06:45:56;3.85;;;3.40;;
48791;SDS011;34587;48.816;9.420;2023-02-24T06:48:21;13.73;;;4.53;;
48791;SDS011;34587;48.816;9.420;2023-02-24T06:50:47;6.78;;;5.15;;
48791;SDS011;34587;48.816;9.420;2023-02-24T06:53:14;13.90;;;4.63;;
48791;SDS011;34587;48.816;9.420;2023-02-24T06:55:46;3.65;;;3.30;;
48791;SDS011;34587;48.816;9.420;2023-02-24T06:58:16;6.00;;;4.40;;
48791;SDS011;34587;48.816;9.420;2023-02-24T07:00:43;14.75;;;5.45;;
48791;SDS011;34587;48.816;9.420;2023-02-24T07:03:20;7.13;;;4.80;;
48791;SDS011;34587;48.816;9.420;2023-02-24T07:05:48;11.75;;;5.30;;
48791;SDS011;34587;48.816;9.420;2023-02-24T07:10:56;9.43;;;4.82;;
48791;SDS011;34587;48.816;9.420;2023-02-24T07:13:24;5.88;;;4.85;;
48791;SDS011;34587;48.816;9.420;2023-02-24T07:15:52;11.10;;;3.90;;
48791;SDS011;34587;48.816;9.420;2023-02-24T07:18:18;5.90;;;4.65;;
48791;SDS011;34587;48.816;9.420;2023-02-24T07:20:44;5.47;;;4.53;;
48791;SDS011;34587;48.816;9.420;2023-02-24T07:23:10;9.32;;;5.43;;
48791;SDS011;34587;48.816;9.420;2023-02-24T07:25:37;9.88;;;5.85;;
48791;SDS011;34587;48.816;9.420;2023-02-24T07:28:04;11.43;;;4.80;;
48791;SDS011;34587;48.816;9.420;2023-02-24T07:30:31;5.97;;;4.45;;
48791;SDS011;34587;48.816;9.420;2023-02-24T07:32:57;9.15;;;4.85;;
48791;SDS011;34587;48.816;9.420;2023-02-24T07:35:23;9.45;;;4.85;;
48791;SDS011;34587;48.816;9.420;2023-02-24T07:37:49;4.30;;;3.50;;
48791;SDS011;34587;48.816;9.420;2023-02-24T07:40:15;5.63;;;3.78;;
48791;SDS011;34587;48.816;9.420;2023-02-24T07:42:44;12.20;;;6.60;;
48791;SDS011;34587;48.816;9.420;2023-02-24T07:45:11;8.52;;;5.15;;
48791;SDS011;34587;48.816;9.420;2023-02-24T07:47:37;7.45;;;5.35;;
48791;SDS011;34587;48.816;9.420;2023-02-24T07:50:05;13.20;;;6.07;;
48791;SDS011;34587;48.816;9.420;2023-02-24T07:52:34;9.02;;;4.78;;
48791;SDS011;34587;48.816;9.420;2023-02-24T07:55:00;13.10;;;5.85;;
48791;SDS011;34587;48.816;9.420;2023-02-24T07:57:26;15.90;;;5.82;;
48791;SDS011;34587;48.816;9.420;2023-02-24T07:59:53;15.52;;;7.68;;
48791;SDS011;34587;48.816;9.420;2023-02-24T08:02:18;8.07;;;3.60;;
48791;SDS011;34587;48.816;9.420;2023-02-24T08:04:44;9.57;;;4.10;;
48791;SDS011;34587;48.816;9.420;2023-02-24T08:09:39;7.55;;;3.70;;
48791;SDS011;34587;48.816;9.420;2023-02-24T08:12:14;12.48;;;5.28;;
48791;SDS011;34587;48.816;9.420;2023-02-24T08:14:45;7.65;;;6.47;;
48791;SDS011;34587;48.816;9.420;2023-02-24T08:17:14;14.60;;;4.82;;
48791;SDS011;34587;48.816;9.420;2023-02-24T08:19:43;12.30;;;5.03;;
48791;SDS011;34587;48.816;9.420;2023-02-24T08:22:11;7.43;;;5.43;;
48791;SDS011;34587;48.816;9.420;2023-02-24T08:24:55;11.38;;;5.93;;
48791;SDS011;34587;48.816;9.420;2023-02-24T08:27:25;7.20;;;5.70;;
48791;SDS011;34587;48.816;9.420;2023-02-24T08:29:56;16.73;;;4.85;;
48791;SDS011;34587;48.816;9.420;2023-02-24T08:32:22;12.02;;;5.75;;
48791;SDS011;34587;48.816;9.420;2023-02-24T08:34:48;17.15;;;6.65;;
48791;SDS011;34587;48.816;9.420;2023-02-24T08:37:14;12.48;;;5.85;;
48791;SDS011;34587;48.816;9.420;2023-02-24T08:39:41;10.18;;;4.45;;
48791;SDS011;34587;48.816;9.420;2023-02-24T08:42:07;20.92;;;7.13;;
48791;SDS011;34587;48.816;9.420;2023-02-24T08:44:33;11.90;;;6.53;;
48791;SDS011;34587;48.816;9.420;2023-02-24T08:47:01;22.60;;;5.97;;
48791;SDS011;34587;48.816;9.420;2023-02-24T08:49:29;12.93;;;5.45;;
48791;SDS011;34587;48.816;9.420;2023-02-24T08:51:57;16.35;;;7.93;;
48791;SDS011;34587;48.816;9.420;2023-02-24T08:54:26;13.32;;;6.95;;
48791;SDS011;34587;48.816;9.420;2023-02-24T08:56:55;14.68;;;6.63;;
48791;SDS011;34587;48.816;9.420;2023-02-24T08:59:32;13.15;;;3.97;;
48791;SDS011;34587;48.816;9.420;2023-02-24T09:05:03;10.10;;;4.55;;
48791;SDS011;34587;48.816;9.420;2023-02-24T09:07:35;13.25;;;7.93;;
48791;SDS011;34587;48.816;9.420;2023-02-24T09:10:03;28.08;;;8.00;;
48791;SDS011;34587;48.816;9.420;2023-02-24T09:12:41;8.80;;;6.10;;
48791;SDS011;34587;48.816;9.420;2023-02-24T09:15:08;12.82;;;6.78;;
48791;SDS011;34587;48.816;9.420;2023-02-24T09:17:34;9.60;;;5.38;;
48791;SDS011;34587;48.816;9.420;2023-02-24T09:20:10;11.25;;;6.95;;
48791;SDS011;34587;48.816;9.420;2023-02-24T09:22:51;13.13;;;5.70;;
48791;SDS011;34587;48.816;9.420;2023-02-24T09:25:26;14.10;;;5.63;;
48791;SDS011;34587;48.816;9.420;2023-02-24T09:30:40;9.60;;;7.10;;
48791;SDS011;34587;48.816;9.420;2023-02-24T09:35:46;16.08;;;6.75;;
48791;SDS011;34587;48.816;9.420;2023-02-24T09:38:14;18.08;;;8.43;;
48791;SDS011;34587;48.816;9.420;2023-02-24T09:40:41;12.60;;;4.45;;
48791;SDS011;34587;48.816;9.420;2023-02-24T09:43:26;8.98;;;6.10;;
48791;SDS011;34587;48.816;9.420;2023-02-24T09:48:39;12.68;;;6.68;;
48791;SDS011;34587;48.816;9.420;2023-02-24T09:51:13;18.80;;;6.05;;
48791;SDS011;34587;48.816;9.420;2023-02-24T09:53:47;10.85;;;5.75;;
48791;SDS011;34587;48.816;9.420;2023-02-24T09:58:49;9.10;;;6.63;;
48791;SDS011;34587;48.816;9.420;2023-02-24T10:04:02;7.18;;;5.70;;
48791;SDS011;34587;48.816;9.420;2023-02-24T10:09:54;10.40;;;5.70;;
48791;SDS011;34587;48.816;9.420;2023-02-24T10:12:43;13.93;;;6.70;;
48791;SDS011;34587;48.816;9.420;2023-02-24T10:15:16;10.05;;;5.55;;
48791;SDS011;34587;48.816;9.420;2023-02-24T10:20:16;8.75;;;4.82;;
48791;SDS011;34587;48.816;9.420;2023-02-24T10:22:57;7.57;;;3.80;;
48791;SDS011;34587;48.816;9.420;2023-02-24T10:25:55;17.80;;;5.32;;
48791;SDS011;34587;48.816;9.420;2023-02-24T10:28:44;4.28;;;3.83;;
48791;SDS011;34587;48.816;9.420;2023-02-24T10:31:31;10.18;;;5.75;;
48791;SDS011;34587;48.816;9.420;2023-02-24T10:34:12;5.68;;;5.03;;
48791;SDS011;34587;48.816;9.420;2023-02-24T10:36:44;10.60;;;4.10;;
48791;SDS011;34587;48.816;9.420;2023-02-24T10:39:21;11.60;;;3.92;;
48791;SDS011;34587;48.816;9.420;2023-02-24T10:42:23;7.90;;;4.55;;
48791;SDS011;34587;48.816;9.420;2023-02-24T10:44:48;4.80;;;3.17;;
48791;SDS011;34587;48.816;9.420;2023-02-24T10:47:26;8.93;;;4.55;;
48791;SDS011;34587;48.816;9.420;2023-02-24T10:49:57;6.80;;;4.55;;
48791;SDS011;34587;48.816;9.420;2023-02-24T10:52:30;10.48;;;4.93;;
48791;SDS011;34587;48.816;9.420;2023-02-24T10:55:33;24.42;;;7.05;;
48791;SDS011;34587;48.816;9.420;2023-02-24T10:58:12;3.67;;;3.35;;
48791;SDS011;34587;48.816;9.420;2023-02-24T11:00:52;5.18;;;2.58;;
48791;SDS011;34587;48.816;9.420;2023-02-24T11:03:36;9.18;;;4.03;;
48791;SDS011;34587;48.816;9.420;2023-02-24T11:06:23;9.68;;;4.45;;
48791;SDS011;34587;48.816;9.420;2023-02-24T11:12:03;3.88;;;3.50;;
48791;SDS011;34587;48.816;9.420;2023-02-24T11:14:51;5.53;;;4.03;;
48791;SDS011;34587;48.816;9.420;2023-02-24T11:17:58;7.38;;;3.67;;
48791;SDS011;34587;48.816;9.420;2023-02-24T11:23:17;6.03;;;3.07;;
48791;SDS011;34587;48.816;9.420;2023-02-24T11:25:50;7.13;;;3.10;;
48791;SDS011;34587;48.816;9.420;2023-02-24T11:34:02;15.63;;;3.92;;
48791;SDS011;34587;48.816;9.420;2023-02-24T11:39:44;10.93;;;4.18;;
48791;SDS011;34587;48.816;9.420;2023-02-24T11:47:52;12.77;;;5.85;;
48791;SDS011;34587;48.816;9.420;2023-02-24T11:52:46;7.88;;;3.22;;
48791;SDS011;34587;48.816;9.420;2023-02-24T11:55:26;8.18;;;3.60;;
48791;SDS011;34587;48.816;9.420;2023-02-24T11:57:58;5.72;;;4.75;;
48791;SDS011;34587;48.816;9.420;2023-02-24T12:00:27;6.65;;;4.13;;
48791;SDS011;34587;48.816;9.420;2023-02-24T12:05:48;9.27;;;2.88;;
48791;SDS011;34587;48.816;9.420;2023-02-24T12:11:05;11.80;;;6.05;;
48791;SDS011;34587;48.816;9.420;2023-02-24T12:13:58;8.15;;;5.18;;
48791;SDS011;34587;48.816;9.420;2023-02-24T12:16:32;8.55;;;4.38;;
48791;SDS011;34587;48.816;9.420;2023-02-24T12:19:03;10.15;;;4.30;;
48791;SDS011;34587;48.816;9.420;2023-02-24T12:21:38;16.27;;;5.13;;
48791;SDS011;34587;48.816;9.420;2023-02-24T12:24:08;12.38;;;4.32;;
48791;SDS011;34587;48.816;9.420;2023-02-24T12:35:32;10.00;;;2.05;;
48791;SDS011;34587;48.816;9.420;2023-02-24T12:52:33;7.43;;;3.30;;
48791;SDS011;34587;48.816;9.420;2023-02-24T13:06:28;5.47;;;4.47;;
48791;SDS011;34587;48.816;9.420;2023-02-24T13:11:56;13.60;;;5.68;;
48791;SDS011;34587;48.816;9.420;2023-02-24T13:14:30;22.80;;;5.78;;
48791;SDS011;34587;48.816;9.420;2023-02-24T13:19:39;11.73;;;3.97;;
48791;SDS011;34587;48.816;9.420;2023-02-24T13:22:23;6.53;;;4.00;;
48791;SDS011;34587;48.816;9.420;2023-02-24T13:30:45;6.88;;;4.78;;
48791;SDS011;34587;48.816;9.420;2023-02-24T13:33:05;16.05;;;5.20;;
48791;SDS011;34587;48.816;9.420;2023-02-24T13:35:48;4.10;;;3.63;;
48791;SDS011;34587;48.816;9.420;2023-02-24T13:40:47;15.43;;;3.95;;
48791;SDS011;34587;48.816;9.420;2023-02-24T13:43:23;3.55;;;2.22;;
48791;SDS011;34587;48.816;9.420;2023-02-24T13:45:53;15.00;;;6.28;;
48791;SDS011;34587;48.816;9.420;2023-02-24T13:59:41;9.48;;;4.30;;
48791;SDS011;34587;48.816;9.420;2023-02-24T14:02:38;19.30;;;5.32;;
48791;SDS011;34587;48.816;9.420;2023-02-24T14:07:36;3.05;;;2.60;;
48791;SDS011;34587;48.816;9.420;2023-02-24T14:10:04;7.50;;;4.43;;
48791;SDS011;34587;48.816;9.420;2023-02-24T14:12:42;7.70;;;3.83;;
48791;SDS011;34587;48.816;9.420;2023-02-24T14:15:11;10.32;;;2.92;;
48791;SDS011;34587;48.816;9.420;2023-02-24T14:17:40;6.53;;;3.47;;
48791;SDS011;34587;48.816;9.420;2023-02-24T14:22:33;15.63;;;5.15;;
48791;SDS011;34587;48.816;9.420;2023-02-24T14:25:06;13.65;;;3.22;;
48791;SDS011;34587;48.816;9.420;2023-02-24T14:27:35;11.20;;;4.78;;
48791;SDS011;34587;48.816;9.420;2023-02-24T14:30:02;3.65;;;3.35;;
48791;SDS011;34587;48.816;9.420;2023-02-24T14:32:28;9.80;;;3.92;;
48791;SDS011;34587;48.816;9.420;2023-02-24T14:34:56;5.35;;;3.17;;
48791;SDS011;34587;48.816;9.420;2023-02-24T14:37:23;7.10;;;3.17;;
48791;SDS011;34587;48.816;9.420;2023-02-24T14:39:53;4.50;;;2.88;;
48791;SDS011;34587;48.816;9.420;2023-02-24T14:42:22;7.28;;;3.80;;
48791;SDS011;34587;48.816;9.420;2023-02-24T14:44:52;5.72;;;4.10;;
48791;SDS011;34587;48.816;9.420;2023-02-24T14:47:21;7.68;;;4.28;;
48791;SDS011;34587;48.816;9.420;2023-02-24T14:50:00;6.93;;;3.92;;
48791;SDS011;34587;48.816;9.420;2023-02-24T14:55:01;6.00;;;4.22;;
48791;SDS011;34587;48.816;9.420;2023-02-24T14:57:33;6.90;;;4.38;;
48791;SDS011;34587;48.816;9.420;2023-02-24T15:00:07;2.63;;;2.42;;
48791;SDS011;34587;48.816;9.420;2023-02-24T15:02:42;6.78;;;3.13;;
48791;SDS011;34587;48.816;9.420;2023-02-24T15:05:12;3.47;;;2.47;;
48791;SDS011;34587;48.816;9.420;2023-02-24T15:07:39;14.25;;;5.22;;
48791;SDS011;34587;48.816;9.420;2023-02-24T15:10:16;4.47;;;3.08;;
48791;SDS011;34587;48.816;9.420;2023-02-24T15:12:51;5.55;;;3.30;;
48791;SDS011;34587;48.816;9.420;2023-02-24T15:15:22;9.57;;;4.10;;
48791;SDS011;34587;48.816;9.420;2023-02-24T15:17:54;4.57;;;3.63;;
48791;SDS011;34587;48.816;9.420;2023-02-24T15:20:33;12.43;;;3.40;;
48791;SDS011;34587;48.816;9.420;2023-02-24T15:23:01;12.95;;;4.75;;
48791;SDS011;34587;48.816;9.420;2023-02-24T15:25:28;6.30;;;3.58;;
48791;SDS011;34587;48.816;9.420;2023-02-24T15:27:59;14.05;;;3.05;;
48791;SDS011;34587;48.816;9.420;2023-02-24T15:30:33;20.60;;;4.18;;
48791;SDS011;34587;48.816;9.420;2023-02-24T15:33:02;5.85;;;3.80;;
48791;SDS011;34587;48.816;9.420;2023-02-24T15:35:32;5.53;;;4.57;;
48791;SDS011;34587;48.816;9.420;2023-02-24T15:37:59;6.13;;;3.05;;
48791;SDS011;34587;48.816;9.420;2023-02-24T15:40:26;5.47;;;2.88;;
48791;SDS011;34587;48.816;9.420;2023-02-24T15:42:55;6.35;;;3.70;;
48791;SDS011;34587;48.816;9.420;2023-02-24T15:47:46;5.72;;;3.72;;
48791;SDS011;34587;48.816;9.420;2023-02-24T15:50:17;3.00;;;2.20;;
48791;SDS011;34587;48.816;9.420;2023-02-24T15:52:43;3.45;;;2.50;;
48791;SDS011;34587;48.816;9.420;2023-02-24T15:55:09;4.65;;;3.42;;
48791;SDS011;34587;48.816;9.420;2023-02-24T16:00:03;7.60;;;4.17;;
48791;SDS011;34587;48.816;9.420;2023-02-24T16:02:37;3.97;;;3.28;;
48791;SDS011;34587;48.816;9.420;2023-02-24T16:05:03;2.78;;;2.00;;
48791;SDS011;34587;48.816;9.420;2023-02-24T16:07:29;5.10;;;3.78;;
48791;SDS011;34587;48.816;9.420;2023-02-24T16:09:57;11.48;;;3.85;;
48791;SDS011;34587;48.816;9.420;2023-02-24T16:12:25;6.63;;;2.63;;
48791;SDS011;34587;48.816;9.420;2023-02-24T16:14:55;5.50;;;2.90;;
48791;SDS011;34587;48.816;9.420;2023-02-24T16:17:31;2.42;;;2.22;;
48791;SDS011;34587;48.816;9.420;2023-02-24T16:19:59;6.63;;;3.08;;
48791;SDS011;34587;48.816;9.420;2023-02-24T16:22:25;6.47;;;2.88;;
48791;SDS011;34587;48.816;9.420;2023-02-24T16:24:51;6.38;;;3.67;;
48791;SDS011;34587;48.816;9.420;2023-02-24T16:27:18;7.35;;;4.65;;
48791;SDS011;34587;48.816;9.420;2023-02-24T16:29:45;5.05;;;2.38;;
48791;SDS011;34587;48.816;9.420;2023-02-24T16:32:11;6.07;;;2.63;;
48791;SDS011;34587;48.816;9.420;2023-02-24T16:34:37;5.13;;;3.97;;
48791;SDS011;34587;48.816;9.420;2023-02-24T16:37:02;7.38;;;2.40;;
48791;SDS011;34587;48.816;9.420;2023-02-24T16:39:28;6.72;;;3.55;;
48791;SDS011;34587;48.816;9.420;2023-02-24T16:41:54;6.82;;;3.75;;
48791;SDS011;34587;48.816;9.420;2023-02-24T16:44:19;6.25;;;3.80;;
48791;SDS011;34587;48.816;9.420;2023-02-24T16:46:44;8.68;;;3.75;;
48791;SDS011;34587;48.816;9.420;2023-02-24T16:49:12;6.70;;;5.03;;
48791;SDS011;34587;48.816;9.420;2023-02-24T16:51:42;13.65;;;4.47;;
48791;SDS011;34587;48.816;9.420;2023-02-24T16:54:08;15.85;;;5.57;;
48791;SDS011;34587;48.816;9.420;2023-02-24T16:56:33;10.85;;;6.38;;
48791;SDS011;34587;48.816;9.420;2023-02-24T16:58:58;15.80;;;7.07;;
48791;SDS011;34587;48.816;9.420;2023-02-24T17:01:23;6.50;;;3.45;;
48791;SDS011;34587;48.816;9.420;2023-02-24T17:03:50;7.20;;;3.72;;
48791;SDS011;34587;48.816;9.420;2023-02-24T17:06:17;5.20;;;3.25;;
48791;SDS011;34587;48.816;9.420;2023-02-24T17:08:43;4.63;;;3.28;;
48791;SDS011;34587;48.816;9.420;2023-02-24T17:11:13;5.10;;;2.47;;
48791;SDS011;34587;48.816;9.420;2023-02-24T17:13:42;12.93;;;5.88;;
48791;SDS011;34587;48.816;9.420;2023-02-24T17:16:08;6.78;;;4.03;;
48791;SDS011;34587;48.816;9.420;2023-02-24T17:18:33;7.70;;;3.83;;
48791;SDS011;34587;48.816;9.420;2023-02-24T17:20:59;4.38;;;4.00;;
48791;SDS011;34587;48.816;9.420;2023-02-24T17:23:24;13.40;;;4.30;;
48791;SDS011;34587;48.816;9.420;2023-02-24T17:25:51;10.32;;;4.25;;
48791;SDS011;34587;48.816;9.420;2023-02-24T17:28:18;13.30;;;4.15;;
48791;SDS011;34587;48.816;9.420;2023-02-24T17:30:45;3.83;;;3.33;;
48791;SDS011;34587;48.816;9.420;2023-02-24T17:33:10;12.88;;;3.03;;
48791;SDS011;34587;48.816;9.420;2023-02-24T17:35:38;4.95;;;3.65;;
48791;SDS011;34587;48.816;9.420;2023-02-24T17:38:03;6.60;;;2.88;;
48791;SDS011;34587;48.816;9.420;2023-02-24T17:40:33;5.68;;;3.53;;
48791;SDS011;34587;48.816;9.420;2023-02-24T17:42:58;5.38;;;3.60;;
48791;SDS011;34587;48.816;9.420;2023-02-24T17:45:23;6.45;;;3.58;;
48791;SDS011;34587;48.816;9.420;2023-02-24T17:47:49;2.35;;;2.20;;
48791;SDS011;34587;48.816;9.420;2023-02-24T17:50:16;3.17;;;1.73;;
48791;SDS011;34587;48.816;9.420;2023-02-24T17:52:41;5.93;;;3.80;;
48791;SDS011;34587;48.816;9.420;2023-02-24T17:55:07;5.22;;;2.72;;
48791;SDS011;34587;48.816;9.420;2023-02-24T17:57:33;12.82;;;4.18;;
48791;SDS011;34587;48.816;9.420;2023-02-24T17:59:59;3.65;;;3.35;;
48791;SDS011;34587;48.816;9.420;2023-02-24T18:02:24;7.78;;;3.55;;
48791;SDS011;34587;48.816;9.420;2023-02-24T18:04:50;5.00;;;3.03;;
48791;SDS011;34587;48.816;9.420;2023-02-24T18:07:15;2.65;;;2.45;;
48791;SDS011;34587;48.816;9.420;2023-02-24T18:09:41;5.50;;;3.80;;
48791;SDS011;34587;48.816;9.420;2023-02-24T18:12:06;1.90;;;1.52;;
48791;SDS011;34587;48.816;9.420;2023-02-24T18:14:32;4.85;;;1.90;;
48791;SDS011;34587;48.816;9.420;2023-02-24T18:16:57;4.68;;;3.20;;
48791;SDS011;34587;48.816;9.420;2023-02-24T18:19:22;3.65;;;2.53;;
48791;SDS011;34587;48.816;9.420;2023-02-24T18:21:48;4.68;;;1.83;;
48791;SDS011;34587;48.816;9.420;2023-02-24T18:24:13;3.42;;;2.38;;
48791;SDS011;34587;48.816;9.420;2023-02-24T18:26:39;2.40;;;1.48;;
48791;SDS011;34587;48.816;9.420;2023-02-24T18:29:04;1.88;;;1.40;;
48791;SDS011;34587;48.816;9.420;2023-02-24T18:31:30;2.42;;;1.83;;
48791;SDS011;34587;48.816;9.420;2023-02-24T18:33:57;12.40;;;4.72;;
48791;SDS011;34587;48.816;9.420;2023-02-24T18:36:23;2.80;;;1.73;;
48791;SDS011;34587;48.816;9.420;2023-02-24T18:38:49;2.60;;;1.75;;
48791;SDS011;34587;48.816;9.420;2023-02-24T18:41:15;1.80;;;1.67;;
48791;SDS011;34587;48.816;9.420;2023-02-24T18:43:43;2.20;;;1.85;;
48791;SDS011;34587;48.816;9.420;2023-02-24T18:46:12;3.07;;;2.77;;
48791;SDS011;34587;48.816;9.420;2023-02-24T18:48:39;2.58;;;2.35;;
48791;SDS011;34587;48.816;9.420;2023-02-24T18:51:08;3.00;;;2.33;;
48791;SDS011;34587;48.816;9.420;2023-02-24T18:53:34;5.10;;;1.63;;
48791;SDS011;34587;48.816;9.420;2023-02-24T18:56:11;2.17;;;1.77;;
48791;SDS011;34587;48.816;9.420;2023-02-24T18:58:40;4.00;;;2.15;;
48791;SDS011;34587;48.816;9.420;2023-02-24T19:01:13;2.25;;;2.15;;
48791;SDS011;34587;48.816;9.420;2023-02-24T19:03:44;1.58;;;1.30;;
48791;SDS011;34587;48.816;9.420;2023-02-24T19:06:10;1.42;;;1.23;;
48791;SDS011;34587;48.816;9.420;2023-02-24T19:08:37;1.70;;;1.60;;
48791;SDS011;34587;48.816;9.420;2023-02-24T19:11:10;4.72;;;1.85;;
48791;SDS011;34587;48.816;9.420;2023-02-24T19:13:40;2.70;;;1.98;;
48791;SDS011;34587;48.816;9.420;2023-02-24T19:16:06;5.15;;;2.15;;
48791;SDS011;34587;48.816;9.420;2023-02-24T19:18:32;4.90;;;2.28;;
48791;SDS011;34587;48.816;9.420;2023-02-24T19:20:58;2.25;;;1.63;;
48791;SDS011;34587;48.816;9.420;2023-02-24T19:23:24;2.85;;;2.30;;
48791;SDS011;34587;48.816;9.420;2023-02-24T19:25:49;2.47;;;2.28;;
48791;SDS011;34587;48.816;9.420;2023-02-24T19:28:15;2.10;;;1.98;;
48791;SDS011;34587;48.816;9.420;2023-02-24T19:30:40;3.53;;;1.90;;
48791;SDS011;34587;48.816;9.420;2023-02-24T19:33:06;2.92;;;2.72;;
48791;SDS011;34587;48.816;9.420;2023-02-24T19:35:32;2.22;;;2.13;;
48791;SDS011;34587;48.816;9.420;2023-02-24T19:37:57;6.53;;;3.63;;
48791;SDS011;34587;48.816;9.420;2023-02-24T19:40:23;4.10;;;2.10;;
48791;SDS011;34587;48.816;9.420;2023-02-24T19:42:49;5.25;;;1.83;;
48791;SDS011;34587;48.816;9.420;2023-02-24T19:45:16;6.45;;;3.10;;
48791;SDS011;34587;48.816;9.420;2023-02-24T19:47:42;2.15;;;1.73;;
48791;SDS011;34587;48.816;9.420;2023-02-24T19:50:11;8.27;;;2.65;;
48791;SDS011;34587;48.816;9.420;2023-02-24T19:52:40;1.77;;;1.67;;
48791;SDS011;34587;48.816;9.420;2023-02-24T19:55:07;1.88;;;1.60;;
48791;SDS011;34587;48.816;9.420;2023-02-24T19:57:33;5.90;;;2.60;;
48791;SDS011;34587;48.816;9.420;2023-02-24T19:59:59;3.92;;;2.78;;
48791;SDS011;34587;48.816;9.420;2023-02-24T20:02:24;3.00;;;2.58;;
48791;SDS011;34587;48.816;9.420;2023-02-24T20:04:50;4.10;;;2.90;;
48791;SDS011;34587;48.816;9.420;2023-02-24T20:07:15;6.72;;;3.17;;
48791;SDS011;34587;48.816;9.420;2023-02-24T20:09:40;4.05;;;2.45;;
48791;SDS011;34587;48.816;9.420;2023-02-24T20:12:06;3.75;;;2.63;;
48791;SDS011;34587;48.816;9.420;2023-02-24T20:14:32;14.88;;;4.18;;
48791;SDS011;34587;48.816;9.420;2023-02-24T20:16:57;4.93;;;3.40;;
48791;SDS011;34587;48.816;9.420;2023-02-24T20:19:23;1.92;;;1.77;;
48791;SDS011;34587;48.816;9.420;2023-02-24T20:21:48;6.32;;;3.85;;
48791;SDS011;34587;48.816;9.420;2023-02-24T20:24:14;2.67;;;2.22;;
48791;SDS011;34587;48.816;9.420;2023-02-24T20:26:41;2.08;;;1.67;;
48791;SDS011;34587;48.816;9.420;2023-02-24T20:29:10;12.48;;;2.33;;
48791;SDS011;34587;48.816;9.420;2023-02-24T20:31:35;5.95;;;3.53;;
48791;SDS011;34587;48.816;9.420;2023-02-24T20:34:03;5.75;;;4.25;;
48791;SDS011;34587;48.816;9.420;2023-02-24T20:36:29;4.63;;;3.53;;
48791;SDS011;34587;48.816;9.420;2023-02-24T20:38:56;5.47;;;2.80;;
48791;SDS011;34587;48.816;9.420;2023-02-24T20:41:23;2.83;;;2.17;;
48791;SDS011;34587;48.816;9.420;2023-02-24T20:43:48;7.57;;;5.05;;
48791;SDS011;34587;48.816;9.420;2023-02-24T20:46:15;2.72;;;2.53;;
48791;SDS011;34587;48.816;9.420;2023-02-24T20:48:42;4.05;;;3.22;;
48791;SDS011;34587;48.816;9.420;2023-02-24T20:51:08;4.82;;;3.17;;
48791;SDS011;34587;48.816;9.420;2023-02-24T20:53:34;3.55;;;3.10;;
48791;SDS011;34587;48.816;9.420;2023-02-24T20:56:04;5.10;;;3.05;;
48791;SDS011;34587;48.816;9.420;2023-02-24T20:58:32;6.75;;;2.22;;
48791;SDS011;34587;48.816;9.420;2023-02-24T21:00:58;4.22;;;1.73;;
48791;SDS011;34587;48.816;9.420;2023-02-24T21:03:23;3.95;;;2.90;;
48791;SDS011;34587;48.816;9.420;2023-02-24T21:05:49;4.65;;;2.95;;
48791;SDS011;34587;48.816;9.420;2023-02-24T21:08:15;7.57;;;2.58;;
48791;SDS011;34587;48.816;9.420;2023-02-24T21:10:44;5.05;;;2.08;;
48791;SDS011;34587;48.816;9.420;2023-02-24T21:13:10;3.50;;;3.20;;
48791;SDS011;34587;48.816;9.420;2023-02-24T21:15:35;5.20;;;2.10;;
48791;SDS011;34587;48.816;9.420;2023-02-24T21:18:01;0.98;;;0.98;;
48791;SDS011;34587;48.816;9.420;2023-02-24T21:20:26;1.40;;;1.30;;
48791;SDS011;34587;48.816;9.420;2023-02-24T21:22:51;0.93;;;0.93;;
48791;SDS011;34587;48.816;9.420;2023-02-24T21:25:17;1.67;;;1.58;;